• Join FlightAware (Why Join?)
  • Login
  • US Flag 
06:54AM EST


 

Airport Tracker/Info


-or-


 

Live Flight TrackerFlight Track Log ✈ ZK-PBG ✈ 19-Apr-2013 ✈ NZQN - YSSY / SYD

Flight Track Log - Related Links

Times and Time Zones

All times are in EDT time to prevent confusion due to time zone crossing. See the ZK-PBG flight status page for this flight to view local times or setup timezone preferences in your user account.

Time Position Orientation Groundspeed Altitude Reporting Facility
EDT Latitude Longitude Course Direction KTS MPH feet Rate Location/Type
01:08AM -42.0679 162.4607 311° West 38,000  Level Aus ATC (Calculated)
01:10AM -41.9413 162.2494 309° West  Level Estimated
01:10AM -41.9100 162.2183 311° West 38,000  Level Aus ATC (Calculated)
01:11AM -41.8094 162.0649 311° West 38,000  Level Aus ATC (Calculated)
01:11AM -41.7606 161.9908 311° West 38,000  Level Aus ATC (Calculated)
01:11AM -41.7606 161.9908 311° West 38,000  Level Aus ATC (Calculated)
01:13AM -41.6881 161.8711 309° West  Level Estimated
01:14AM -41.6211 161.7610 309° West  Level Estimated
01:15AM -41.5540 161.6510 309° West  Level Estimated
01:16AM -41.4868 161.5413 309° West  Level Estimated
01:17AM -41.4195 161.4318 309° West  Level Estimated
01:18AM -41.3521 161.3226 309° West  Level Estimated
01:19AM -41.2846 161.2135 309° West  Level Estimated
01:20AM -41.2169 161.1047 310° West  Level Estimated
01:21AM -41.1492 160.9961 310° West  Level Estimated
01:22AM -41.0814 160.8878 310° West  Level Estimated
01:23AM -41.0135 160.7796 310° West  Level Estimated
01:24AM -40.9454 160.6717 310° West  Level Estimated
01:25AM -40.8773 160.5640 310° West  Level Estimated
01:26AM -40.8091 160.4566 310° West  Level Estimated
01:27AM -40.7407 160.3493 310° West  Level Estimated
01:28AM -40.6723 160.2423 310° West  Level Estimated
01:29AM -40.6038 160.1355 310° West  Level Estimated
01:30AM -40.5351 160.0289 310° West  Level Estimated
01:31AM -40.4664 159.9225 310° West  Level Estimated
01:32AM -40.3976 159.8164 310° West  Level Estimated
01:33AM -40.3287 159.7104 310° West  Level Estimated
01:34AM -40.2597 159.6047 311° West  Level Estimated
01:35AM -40.1906 159.4992 311° West  Level Estimated
01:36AM -40.1213 159.3939 311° West  Level Estimated
01:37AM -40.0521 159.2889 309° West  Level Estimated
01:38AM -39.9827 159.1840 311° West  Level Estimated
01:39AM -39.9132 159.0793 311° West  Level Estimated
01:40AM -39.8436 158.9749 311° West  Level Estimated
01:41AM -39.7739 158.8707 311° West  Level Estimated
01:42AM -39.7041 158.7667 311° West  Level Estimated
01:43AM -39.6343 158.6629 311° West  Level Estimated
01:44AM -39.5643 158.5593 311° West  Level Estimated
01:45AM -39.4943 158.4559 311° West  Level Estimated
01:46AM -39.4241 158.3527 311° West  Level Estimated
01:47AM -39.3539 158.2497 311° West  Level Estimated
01:48AM -39.2836 158.1470 311° West  Level Estimated
01:49AM -39.2132 158.0444 312° West  Level Estimated
01:50AM -39.1427 157.9420 312° West  Level Estimated
01:51AM -39.0721 157.8399 312° West  Level Estimated
01:52AM -39.0014 157.7380 312° West  Level Estimated
01:53AM -38.9306 157.6362 312° West  Level Estimated
01:54AM -38.8598 157.5347 312° West  Level Estimated
01:54AM -38.3987 157.2776 314° West 38,000  Level Aus ATC (Calculated)
01:55AM -38.7888 157.4333 312° West  Level Estimated
01:56AM -38.2761 157.0936 310° West  Level Estimated
01:57AM -38.2073 156.9908 310° West  Level Estimated
01:58AM -38.1384 156.8881 310° West  Level Estimated
01:58AM -38.1217 156.9201 315° West 38,000  Level Aus ATC (Calculated)
01:58AM -38.0424 156.8185 315° West 38,000  Level Aus ATC (Calculated)
01:59AM -38.0531 156.8172 310° West  Level Estimated
02:00AM -37.9844 156.7145 310° West  Level Estimated
02:00AM -37.9233 156.6664 315° West 38,000  Level Aus ATC (Calculated)
02:00AM -37.9233 156.6664 315° West 38,000  Level Aus ATC (Calculated)
02:02AM -37.8033 156.4868 310° West  Level Estimated
02:03AM -37.7346 156.3844 310° West  Level Estimated
02:04AM -37.6658 156.2823 310° West  Level Estimated
02:05AM -37.5970 156.1803 310° West  Level Estimated
02:06AM -37.5280 156.0785 310° West  Level Estimated
02:07AM -37.4590 155.9769 311° West  Level Estimated
02:08AM -37.3899 155.8754 311° West  Level Estimated
02:09AM -37.3206 155.7742 311° West  Level Estimated
02:10AM -37.2514 155.6732 311° West  Level Estimated
02:11AM -37.1820 155.5723 310° West  Level Estimated
02:12AM -37.1125 155.4716 311° West  Level Estimated
02:13AM -37.0430 155.3711 311° West  Level Estimated
02:14AM -36.9733 155.2708 311° West  Level Estimated
02:15AM -36.9036 155.1707 311° West  Level Estimated
02:16AM -36.8338 155.0708 311° West  Level Estimated
02:17AM -36.7639 154.9710 311° West  Level Estimated
02:18AM -36.6940 154.8714 311° West  Level Estimated
02:18AM -36.4379 154.8303 314° West 38,000  Level Aus ATC (Calculated)
02:18AM -36.4379 154.8303 314° West 38,000  Level Aus ATC (Calculated)
02:20AM -36.3225 154.6523 309° West  Level Estimated
02:21AM -36.2558 154.5499 309° West  Level Estimated
02:22AM -36.1891 154.4476 309° West  Level Estimated
02:23AM -36.1222 154.3455 309° West  Level Estimated
02:23AM -36.0316 154.3461 138° Southeast 21,900  Level Aus ATC (Calculated)
02:25AM -35.9131 154.1581 308° West  Level Estimated
02:25AM -35.7894 154.1189 141° Southeast 21,900  Level Aus ATC (Calculated)
02:27AM -35.7104 153.9875 307° West  Level Estimated
02:27AM -36.2288 154.5643 307° West 394 453 38,000  Level Aus ATC (RADAR)
02:28AM -36.1716 154.5161 326° Northwest 399 459 38,000  Level Aus ATC (RADAR)
02:28AM -36.1006 154.4222 313° West 394 453 38,000  Level Aus ATC (RADAR)
02:29AM -36.0531 154.3643 315° West 394 453 38,000  Level Aus ATC (RADAR)
02:30AM -35.9242 154.2402 322° Northwest 399 459 38,000  Level Aus ATC (RADAR)
02:31AM -35.9025 154.2173 320° Northwest 399 459 38,000  Level Aus ATC (RADAR)
02:31AM -35.8450 154.1696 326° Northwest 406 467 38,000  Level Aus ATC (RADAR)
02:32AM -35.7554 154.0806 321° Northwest 401 461 38,000  Level Aus ATC (RADAR)
02:33AM -35.6995 154.0316 325° Northwest 403 464 38,000  Level Aus ATC (RADAR)
02:34AM -35.6032 153.9483 325° Northwest 408 470 38,000  Level Aus ATC (RADAR)
02:35AM -35.4725 153.8266 323° Northwest 401 461 38,000  Level Aus ATC (RADAR)
02:35AM -35.4640 153.8160 323° Northwest 420 483 38,000  Level FlightAware
02:36AM -35.4488 153.8049 323° Northwest 402 463 38,000  Level Aus ATC (RADAR)
02:36AM -35.3951 153.7548 323° Northwest 400 460 38,000  Level Aus ATC (RADAR)
02:36AM -35.3880 153.7460 323° Northwest 416 479 38,000  Level FlightAware
02:37AM -35.3250 153.6880 323° Northwest 414 476 38,000  Level FlightAware
02:38AM -35.2580 153.6270 323° Northwest 414 476 38,000  Level FlightAware
02:38AM -35.2040 153.5770 323° Northwest 412 474 38,000  Level FlightAware
02:39AM -35.1266 153.5056 323° Northwest 407 468 38,000  Level Aus ATC (RADAR)
02:39AM -35.1140 153.4950 323° Northwest 414 476 38,000  Level FlightAware
02:40AM -35.0380 153.4250 323° Northwest 416 479 38,000  Level FlightAware
02:41AM -34.9733 153.3649 323° Northwest 410 472 38,000  Level Aus ATC (RADAR)
02:41AM -34.9780 153.3700 323° Northwest 418 481 38,000  Level FlightAware
02:41AM -34.9130 153.3110 323° Northwest 421 484 38,000  Level FlightAware
02:42AM -34.8470 153.2520 324° Northwest 416 479 38,000  Level FlightAware
02:42AM -34.8099 153.2181 324° Northwest 409 471 38,000  Level Aus ATC (RADAR)
02:43AM -34.7840 153.1940 324° Northwest 412 474 38,000  Level FlightAware
02:43AM -34.7260 153.1420 324° Northwest 405 466 38,000 -540 Level FlightAware
02:44AM -34.6683 153.0905 324° Northwest 384 442 37,400 -540 Descending Aus ATC (RADAR)
02:44AM -34.6750 153.0960 324° Northwest 382 440 37,700 -960 Climbing FlightAware
02:45AM -34.6050 153.0330 323° Northwest 366 421 36,600 -1,440 Descending FlightAware
02:45AM -34.5550 152.9880 323° Northwest 356 410 35,700 -1,740 Descending FlightAware
02:46AM -34.5457 152.9797 323° Northwest 359 413 35,500 -1,740 Descending Aus ATC (RADAR)
02:46AM -34.5219 152.9584 323° Northwest 343 395 35,100 -1,560 Descending Aus ATC (RADAR)
02:46AM -34.4900 152.9300 323° Northwest 343 395 34,300 -1,980 Descending FlightAware
02:47AM -34.4470 152.8910 323° Northwest 343 395 33,000 -2,520 Descending FlightAware
02:47AM -34.4058 152.8532 323° Northwest 341 392 31,700 -2,160 Descending Aus ATC (RADAR)
02:48AM -34.3820 152.8320 323° Northwest 340 391 31,200 -1,680 Descending FlightAware
02:48AM -34.3330 152.7880 323° Northwest 331 381 30,000 -2,100 Descending FlightAware
02:49AM -34.2936 152.7529 323° Northwest 329 379 28,900 -1,800 Descending Aus ATC (RADAR)
02:49AM -34.2890 152.7490 323° Northwest 329 379 28,800 -2,100 Descending FlightAware
02:49AM -34.2503 152.7145 323° Northwest 331 381 27,700 -2,040 Descending Aus ATC (RADAR)
02:50AM -34.2310 152.6980 323° Northwest 340 391 27,300 -1,440 Descending FlightAware
02:50AM -34.1800 152.6520 323° Northwest 339 390 26,200 -1,800 Descending FlightAware
02:51AM -34.1510 152.6274 323° Northwest 330 380 25,700 -1,920 Descending Aus ATC (RADAR)
02:51AM -34.1301 152.6083 323° Northwest 336 387 25,200 -1,620 Descending Aus ATC (RADAR)
02:51AM -34.1200 152.5990 323° Northwest 337 388 24,900 -2,100 Descending FlightAware
02:52AM -34.0876 152.5670 323° Northwest 338 389 24,000 -1,800 Descending Aus ATC (RADAR)
02:52AM -34.0830 152.5500 323° Northwest 309 356 23,700 -1,500 Descending FlightAware
02:52AM -34.0780 152.5200 281° West 300 345 23,200 -1,740 Descending FlightAware
02:53AM -34.0744 152.4759 281° West 296 341 22,600 -1,380 Descending Aus ATC (RADAR)
02:53AM -34.0730 152.4640 281° West 297 342 22,400 -1,320 Descending FlightAware
02:53AM -34.0676 152.4144 281° West 290 334 21,800 -1,320 Descending Aus ATC (RADAR)
02:54AM -34.0640 152.3750 281° West 289 333 21,200 -1,620 Descending FlightAware
02:54AM -34.0602 152.3311 281° West 283 326 20,400 -2,100 Descending Aus ATC (RADAR)
02:55AM -34.0560 152.2860 281° West 310 357 19,300 -1,680 Descending FlightAware
02:55AM -34.0490 152.2130 277° West 322 371 18,400 -1,140 Descending FlightAware
02:56AM -34.0435 152.1615 277° West 311 358 18,100 -1,080 Descending Aus ATC (RADAR)
02:56AM -34.0410 152.1350 277° West 303 349 17,600 -1,680 Descending FlightAware
02:56AM -34.0360 152.0830 277° West 299 344 16,700 -1,920 Descending FlightAware
02:57AM -34.0353 152.0750 277° West 294 338 16,600 -1,320 Descending Aus ATC (RADAR)
02:57AM -34.0290 152.0080 276° West 296 341 15,600 -1,440 Descending FlightAware
02:58AM -34.0210 151.9310 277° West 288 331 14,400 -1,560 Descending FlightAware
02:59AM -34.0150 151.8690 277° West 285 328 13,400 -1,500 Descending FlightAware
02:59AM -34.0070 151.7950 277° West 280 322 12,300 -1,380 Descending FlightAware
03:00AM -34.0030 151.7570 277° West 279 321 11,700 -1,500 Descending FlightAware
03:01AM -33.9926 151.6513 277° West 267 307 10,100 -1,440 Descending Aus ATC (RADAR)
03:01AM -33.9930 151.6540 277° West 270 311 10,200 -1,140 Climbing FlightAware
03:02AM -33.9880 151.6120 278° West 267 307 9,500 -1,560 Descending FlightAware
03:02AM -33.9847 151.5779 278° West 260 299 9,000 -1,080 Descending Aus ATC (RADAR)
03:02AM -33.9820 151.5530 278° West 263 303 8,800 -600 Descending FlightAware
03:03AM -33.9780 151.5070 276° West 268 308 8,500 -720 Descending FlightAware
03:03AM -33.9720 151.4510 277° West 268 308 8,000 -660 Descending FlightAware
03:04AM -33.9700 151.4310 277° West 268 308 7,900 -720 Descending FlightAware
03:04AM -33.9650 151.3830 277° West 272 313 7,500 -900 Descending FlightAware
03:04AM -33.9640 151.3730 277° West 268 308 7,400 -1,560 Descending FlightAware
03:05AM -33.9590 151.3290 278° West 271 312 6,600 -1,320 Descending FlightAware
03:05AM -33.9500 151.3050 294° West 288 331 6,300 -1,080 Descending FlightAware
03:05AM -33.9300 151.2890 326° Northwest 307 353 6,000 -480 Descending FlightAware
03:06AM -33.8970 151.2800 347° North 309 356 6,000  Level FlightAware
03:06AM -33.8650 151.2770 356° North 314 361 6,000 -900 Level FlightAware
03:07AM -33.8070 151.2730 357° North 303 349 5,100 -1,140 Descending FlightAware
03:07AM -33.7820 151.2720 358° North 288 331 4,900 -360 Descending FlightAware
03:08AM -33.7360 151.2700 358° North 265 305 4,800 -120 Descending FlightAware
03:08AM -33.7110 151.2580 338° Northwest 249 287 4,800 -180 Level FlightAware
03:08AM -33.7010 151.2410 305° West 224 258 4,700 -600 Descending FlightAware
03:09AM -33.7130 151.2070 247° West 184 212 4,300 -720 Descending FlightAware
03:09AM -33.7376 151.1982 247° West 192 221 4,000 -840 Descending Aus ATC (RADAR)
03:09AM -33.7410 151.1970 247° West 187 215 3,900 -780 Descending FlightAware
03:10AM -33.7630 151.1900 195° South 169 194 3,600 -780 Descending FlightAware
03:10AM -33.7860 151.1820 196° South 166 191 3,200 -840 Descending FlightAware
03:11AM -33.7960 151.1790 194° South 154 177 3,000 -960 Descending FlightAware
03:11AM -33.8106 151.1743 194° South 163 188 2,700 -840 Descending Aus ATC (RADAR)
03:11AM -33.8180 151.1720 194° South 153 176 2,600 -660 Descending FlightAware
03:11AM -33.8290 151.1690 193° South 155 178 2,400 -900 Descending FlightAware
03:12AM -33.8441 151.1640 193° South 151 174 2,100 -720 Descending Aus ATC (RADAR)
03:12AM -33.8460 151.1640 193° South 146 168 2,100 -540 Level FlightAware
03:12AM -33.8640 151.1660 175° South 129 148 1,800 -720 Descending FlightAware
03:13AM -33.8720 151.1680 175° South 132 152 1,600 -1,140 Descending FlightAware
03:13AM -33.8817 151.1704 175° South 142 163 1,400 -900 Descending Aus ATC (RADAR)
03:13AM -33.9020 151.1760 168° South 134 154 1,000 -780 Descending FlightAware
03:13AM -33.9120 151.1790 166° South 149 171 800 -780 Descending FlightAware
03:14AM -33.9290 151.1830 169° South 137 158 500 -780 Descending FlightAware
03:14AM -33.9390 151.1860 166° South 137 158 300 -840 Descending FlightAware
03:15AM -33.9590 151.1910 168° South 132 152 -600 Descending FlightAware
03:15AM -33.9670 151.1930 168° South 44 51  Level FlightAware